Time;durP1;ratioP1;P1;durP2;ratioP2;P2;SDS_P1;SDS_P2;PMS_P1;PMS_P2;Temp;Humidity;BMP_temperature;BMP_pressure;BME280_temperature;BME280_humidity;BME280_pressure;Samples;Min_cycle;Max_cycle;Signal;HPM_P1;HPM_P2
2021/12/10 00:01:41;;;;;;;76.57;39.03;;;4.60;99.90;;;;;;5070523;28;20048;-73
2021/12/10 00:04:09;;;;;;;65.80;38.47;;;4.60;99.90;;;;;;5070908;28;20055;-73
2021/12/10 00:06:45;;;;;;;77.07;39.85;;;4.60;99.90;;;;;;5070597;28;20044;-73
2021/12/10 00:09:18;;;;;;;74.10;39.65;;;4.70;99.90;;;;;;5070476;28;20087;-73
2021/12/10 00:11:51;;;;;;;71.53;40.17;;;4.90;99.90;;;;;;5070472;28;20435;-73
2021/12/10 00:14:19;;;;;;;63.22;39.15;;;4.30;99.90;;;;;;5053482;28;20123;-74
2021/12/10 00:16:45;;;;;;;70.85;38.47;;;4.50;99.90;;;;;;5070197;28;20115;-74
2021/12/10 00:21:46;;;;;;;71.30;39.80;;;4.30;99.90;;;;;;5070019;28;20052;-74
2021/12/10 00:24:12;;;;;;;75.13;39.55;;;4.50;99.90;;;;;;5070082;28;20079;-74
2021/12/10 00:26:39;;;;;;;67.68;39.10;;;4.60;99.90;;;;;;5053836;28;20153;-74
2021/12/10 00:29:06;;;;;;;67.50;37.95;;;4.70;99.90;;;;;;5070169;28;20063;-73
2021/12/10 00:31:47;;;;;;;64.57;36.97;;;4.40;99.90;;;;;;5070189;28;20044;-73
2021/12/10 00:34:31;;;;;;;58.50;35.75;;;4.30;99.90;;;;;;5070296;28;20178;-68
2021/12/10 00:37:01;;;;;;;67.15;33.40;;;5.00;99.90;;;;;;5070144;28;20052;-68
2021/12/10 00:39:33;;;;;;;58.08;30.77;;;4.60;99.90;;;;;;5069755;28;20052;-68
2021/12/10 00:42:02;;;;;;;56.22;32.38;;;4.60;99.90;;;;;;5069550;28;20488;-68
2021/12/10 00:44:28;;;;;;;50.95;28.40;;;4.60;99.90;;;;;;5070150;28;20056;-68
2021/12/10 00:46:55;;;;;;;55.45;30.23;;;4.90;99.90;;;;;;5069571;28;20064;-69
2021/12/10 00:49:21;;;;;;;54.60;29.60;;;4.80;99.90;;;;;;5069785;28;20044;-68
2021/12/10 00:51:48;;;;;;;47.20;27.60;;;4.70;99.90;;;;;;5069567;28;20484;-68
2021/12/10 00:54:16;;;;;;;45.33;27.45;;;4.80;99.90;;;;;;5069891;28;20452;-68
2021/12/10 00:56:43;;;;;;;47.53;27.70;;;4.80;99.90;;;;;;5053034;28;20769;-68
2021/12/10 00:59:11;;;;;;;54.47;27.65;;;4.60;99.90;;;;;;5070663;28;20041;-68
2021/12/10 01:01:39;;;;;;;48.80;27.45;;;5.10;99.90;;;;;;5069193;28;20060;-68
2021/12/10 01:04:15;;;;;;;46.70;26.80;;;4.80;99.90;;;;;;5069262;28;20504;-73
2021/12/10 01:06:43;;;;;;;41.38;26.17;;;4.50;99.90;;;;;;5069515;28;20570;-73
2021/12/10 01:09:17;;;;;;;46.08;26.65;;;4.60;99.90;;;;;;5069406;28;20056;-73
2021/12/10 01:12:00;;;;;;;40.60;26.20;;;4.70;99.90;;;;;;5069527;28;20051;-73
2021/12/10 01:14:58;;;;;;;42.20;24.20;;;4.50;99.90;;;;;;5069523;28;20036;-73
2021/12/10 01:25:55;;;;;;;43.53;24.77;;;4.60;99.90;;;;;;5069117;28;20048;-73
2021/12/10 01:28:22;;;;;;;39.20;24.25;;;;;;;;;;5069357;28;20048;-74
2021/12/10 01:30:48;;;;;;;46.17;23.33;;;4.40;99.90;;;;;;5069859;28;20056;-73
2021/12/10 01:33:17;;;;;;;47.42;23.60;;;4.40;99.90;;;;;;5069198;28;20060;-73
2021/12/10 01:35:53;;;;;;;41.17;23.27;;;4.50;99.90;;;;;;5069308;28;20567;-67
2021/12/10 01:38:19;;;;;;;;;;;4.60;99.90;;;;;;5069429;28;20045;-68
2021/12/10 01:40:48;;;;;;;44.35;21.95;;;4.40;99.90;;;;;;5069461;28;19926;-68
2021/12/10 01:43:24;;;;;;;41.88;22.60;;;4.80;99.90;;;;;;5069254;28;20041;-68
2021/12/10 01:46:01;;;;;;;34.63;21.40;;;4.50;99.90;;;;;;5070484;28;20164;-68
2021/12/10 01:48:31;;;;;;;39.03;21.55;;;4.70;99.90;;;;;;5069182;28;20119;-67
2021/12/10 01:50:59;;;;;;;45.67;22.98;;;4.50;99.90;;;;;;5069175;28;20057;-68
2021/12/10 01:53:28;;;;;;;42.55;22.23;;;4.40;99.90;;;;;;5068961;28;20055;-68
2021/12/10 01:55:58;;;;;;;36.88;20.95;;;4.60;99.90;;;;;;5052071;28;20051;-68
2021/12/10 01:58:27;;;;;;;35.38;20.88;;;4.90;99.90;;;;;;5068942;28;20083;-68
2021/12/10 02:01:24;;;;;;;40.40;20.63;;;4.60;99.90;;;;;;5068575;28;20102;-68
2021/12/10 02:03:52;;;;;;;32.53;19.45;;;4.50;99.90;;;;;;5060240;28;20059;-68
2021/12/10 02:06:18;;;;;;;39.00;20.60;;;4.90;99.90;;;;;;5068697;28;20054;-68
2021/12/10 02:08:45;;;;;;;35.55;20.05;;;4.60;99.90;;;;;;5051920;28;20470;-68
2021/12/10 02:11:11;;;;;;;38.72;19.95;;;4.80;99.90;;;;;;5052031;28;20041;-68
2021/12/10 02:13:38;;;;;;;38.55;19.95;;;4.40;99.90;;;;;;5072593;28;20056;-68
2021/12/10 02:16:07;;;;;;;40.90;20.55;;;4.60;99.90;;;;;;5073623;28;20551;-68
2021/12/10 02:18:34;;;;;;;38.83;20.77;;;;;;;;;;5072842;28;20075;-68
2021/12/10 02:21:03;;;;;;;39.00;20.17;;;3.10;99.90;;;;;;5072575;28;20041;-67
2021/12/10 02:23:35;;;;;;;40.28;19.98;;;4.60;99.90;;;;;;5072702;28;20067;-68
2021/12/10 02:26:02;;;;;;;37.13;20.63;;;4.70;99.90;;;;;;5072588;28;20044;-68
2021/12/10 02:28:29;;;;;;;38.95;19.63;;;4.50;99.90;;;;;;5072084;28;20048;-68
2021/12/10 02:30:56;;;;;;;39.00;20.77;;;4.50;99.90;;;;;;5055213;28;20462;-68
2021/12/10 02:33:22;;;;;;;43.10;21.10;;;4.60;99.90;;;;;;5071867;28;20045;-68
2021/12/10 02:35:48;;;;;;;34.08;19.45;;;4.50;99.90;;;;;;5071797;28;20044;-68
2021/12/10 02:38:17;;;;;;;34.63;20.90;;;4.20;99.90;;;;;;5072364;28;20049;-67
2021/12/10 02:40:53;;;;;;;38.22;19.85;;;4.40;99.90;;;;;;5073367;28;20058;-67
2021/12/10 02:43:21;;;;;;;37.35;20.38;;;4.40;99.90;;;;;;5071850;28;20075;-67
2021/12/10 02:45:50;;;;;;;40.35;20.52;;;4.50;99.90;;;;;;5073052;28;20064;-68
2021/12/10 02:48:16;;;;;;;43.05;21.85;;;4.20;99.90;;;;;;5055336;28;20048;-68
2021/12/10 02:50:43;;;;;;;44.13;22.27;;;;;;;;;;5071840;28;20044;-68
2021/12/10 02:53:10;;;;;;;43.88;24.35;;;4.00;99.90;;;;;;5071667;28;20045;-68
2021/12/10 02:55:36;;;;;;;48.83;24.58;;;4.30;99.90;;;;;;5071864;28;20075;-68
2021/12/10 02:58:06;;;;;;;41.83;24.63;;;4.50;99.90;;;;;;5054912;28;20037;-74
2021/12/10 03:00:41;;;;;;;40.60;24.75;;;4.70;99.90;;;;;;5071348;28;20564;-73
2021/12/10 03:03:07;;;;;;;41.05;24.40;;;;;;;;;;5071804;28;20055;-73
2021/12/10 03:05:33;;;;;;;43.55;26.45;;;4.50;99.90;;;;;;5071404;28;20922;-74
2021/12/10 03:07:58;;;;;;;46.58;26.23;;;4.40;99.90;;;;;;5071657;28;20064;-73
2021/12/10 03:10:30;;;;;;;41.70;27.15;;;4.50;99.90;;;;;;5071500;28;20052;-73
2021/12/10 03:12:57;;;;;;;42.88;25.92;;;4.40;99.90;;;;;;5071510;28;20055;-74
2021/12/10 03:15:25;;;;;;;49.72;26.65;;;4.30;99.90;;;;;;5071836;28;20416;-74
2021/12/10 03:17:52;;;;;;;51.80;26.70;;;;;;;;;;5071203;28;20082;-74
2021/12/10 03:20:24;;;;;;;45.78;26.83;;;4.30;99.90;;;;;;5071036;28;20055;-73
2021/12/10 03:22:49;;;;;;;47.08;27.50;;;4.40;99.90;;;;;;5071043;28;20048;-74
2021/12/10 03:25:16;;;;;;;45.17;27.27;;;4.40;99.90;;;;;;5054667;28;20036;-74
2021/12/10 03:27:43;;;;;;;46.83;27.73;;;;;;;;;;5054482;28;20059;-74
2021/12/10 03:30:21;;;;;;;52.30;28.30;;;4.30;99.90;;;;;;5070665;28;20131;-74
2021/12/10 03:32:48;;;;;;;46.03;27.45;;;4.70;99.90;;;;;;5070663;28;20076;-73
2021/12/10 03:35:23;;;;;;;47.33;28.05;;;4.30;99.90;;;;;;5070772;28;20048;-73
2021/12/10 03:37:49;;;;;;;40.92;25.27;;;4.20;99.90;;;;;;5071019;28;20051;-74
2021/12/10 03:40:18;;;;;;;46.63;27.05;;;3.80;99.90;;;;;;5071448;28;20400;-73
2021/12/10 03:42:47;;;;;;;45.20;26.13;;;4.20;99.90;;;;;;5072147;28;20416;-73
2021/12/10 03:45:14;;;;;;;46.05;26.33;;;4.20;99.90;;;;;;5070881;28;20045;-74
2021/12/10 03:47:41;;;;;;;38.83;23.70;;;4.50;99.90;;;;;;5071821;28;20048;-73
2021/12/10 03:50:10;;;;;;;38.42;25.15;;;4.40;99.90;;;;;;5070836;28;20094;-73
2021/12/10 03:52:37;;;;;;;49.95;26.40;;;4.40;99.90;;;;;;5070802;28;20048;-74
2021/12/10 03:55:05;;;;;;;42.67;25.75;;;4.20;99.90;;;;;;5070594;28;20101;-74
2021/12/10 03:57:31;;;;;;;38.20;25.15;;;;;;;;;;5070551;28;20496;-74
2021/12/10 03:59:57;;;;;;;43.45;24.48;;;;;;;;;;5070667;28;20128;-74
2021/12/10 04:02:24;;;;;;;39.33;24.83;;;;;;;;;;5070422;28;20048;-74
2021/12/10 04:04:51;;;;;;;39.90;24.73;;;4.40;99.90;;;;;;5070609;28;20048;-74
2021/12/10 04:07:23;;;;;;;40.03;24.60;;;4.10;99.90;;;;;;5054130;28;20052;-74
2021/12/10 04:09:50;;;;;;;41.30;25.75;;;4.20;99.90;;;;;;5054269;28;20090;-73
2021/12/10 04:12:20;;;;;;;38.35;25.15;;;4.10;99.90;;;;;;5071935;28;20051;-74
2021/12/10 04:14:49;;;;;;;44.40;25.35;;;4.00;99.90;;;;;;5070176;28;20036;-74
2021/12/10 04:17:17;;;;;;;35.45;24.77;;;3.90;99.90;;;;;;5069929;28;20041;-74
2021/12/10 04:19:45;;;;;;;37.78;26.08;;;3.80;99.90;;;;;;5070042;28;20052;-74
2021/12/10 04:22:13;;;;;;;43.92;25.80;;;3.80;99.90;;;;;;5070544;28;20071;-74
2021/12/10 04:24:41;;;;;;;38.45;26.30;;;3.90;99.90;;;;;;5069860;28;20059;-74
2021/12/10 04:27:09;;;;;;;42.47;26.55;;;4.00;99.90;;;;;;5069950;28;20048;-74
2021/12/10 04:29:35;;;;;;;35.67;23.58;;;;;;;;;;5053209;28;20145;-74
2021/12/10 04:32:03;;;;;;;38.08;25.73;;;3.90;99.90;;;;;;5069743;28;20174;-73
2021/12/10 04:34:31;;;;;;;40.03;27.75;;;4.00;99.90;;;;;;5069031;28;20060;-74
2021/12/10 04:36:59;;;;;;;37.35;25.08;;;3.90;99.90;;;;;;5069568;28;20045;-74
2021/12/10 04:39:26;;;;;;;38.33;25.27;;;3.70;99.90;;;;;;5069633;28;20045;-74
2021/12/10 04:41:52;;;;;;;36.40;25.67;;;;;;;;;;5069720;28;20075;-74
2021/12/10 04:44:18;;;;;;;40.38;23.90;;;3.90;99.90;;;;;;5053222;28;20045;-74
2021/12/10 04:46:44;;;;;;;31.15;22.60;;;4.90;99.90;;;;;;5069529;28;20067;-74
2021/12/10 04:49:13;;;;;;;31.58;24.17;;;3.80;99.90;;;;;;5070095;28;20049;-74
2021/12/10 04:51:42;;;;;;;34.42;23.02;;;3.40;99.90;;;;;;5070358;28;20040;-74
2021/12/10 04:54:09;;;;;;;31.50;21.15;;;3.50;99.90;;;;;;5053076;28;20127;-74
2021/12/10 04:56:36;;;;;;;28.30;19.25;;;3.60;99.90;;;;;;5069450;28;20032;-74
2021/12/10 04:59:04;;;;;;;27.83;19.10;;;3.40;99.90;;;;;;5069637;28;20127;-74
2021/12/10 05:01:32;;;;;;;31.90;20.45;;;3.60;99.90;;;;;;5069762;28;20040;-74
2021/12/10 05:03:59;;;;;;;31.98;20.63;;;3.30;99.90;;;;;;5069837;28;20056;-73
2021/12/10 05:06:25;;;;;;;29.67;19.80;;;3.20;99.90;;;;;;5069745;28;20484;-73
2021/12/10 05:08:52;;;;;;;29.17;18.98;;;;;;;;;;5069298;28;20091;-73
2021/12/10 05:11:18;;;;;;;27.92;17.85;;;3.20;99.90;;;;;;5071032;28;20036;-73
2021/12/10 05:13:47;;;;;;;27.20;18.90;;;2.40;99.90;;;;;;5071132;28;20047;-73
2021/12/10 05:16:15;;;;;;;30.35;19.65;;;3.00;99.90;;;;;;5069465;28;20083;-72
2021/12/10 05:18:45;;;;;;;24.45;17.17;;;3.00;99.90;;;;;;5069451;28;20507;-72
2021/12/10 05:21:14;;;;;;;27.92;17.42;;;2.70;99.90;;;;;;5069146;28;20050;-72
2021/12/10 05:23:39;;;;;;;28.73;18.08;;;2.90;99.90;;;;;;5069068;28;20050;-72
2021/12/10 05:26:06;;;;;;;26.50;17.95;;;2.80;99.90;;;;;;5069030;28;20044;-72
2021/12/10 05:28:32;;;;;;;28.33;17.65;;;2.90;99.90;;;;;;5049877;28;20102;-73
2021/12/10 05:30:59;;;;;;;28.13;17.90;;;3.90;99.90;;;;;;5068417;28;20049;-72
2021/12/10 05:33:28;;;;;;;26.13;17.77;;;3.10;99.90;;;;;;5068846;28;20771;-73
2021/12/10 05:35:54;;;;;;;29.08;17.98;;;2.70;99.90;;;;;;5067935;28;20541;-72
2021/12/10 05:38:21;;;;;;;26.30;17.33;;;2.00;99.90;;;;;;5067665;28;20399;-72
2021/12/10 05:40:49;;;;;;;26.17;17.13;;;2.70;99.90;;;;;;5067825;28;20052;-72
2021/12/10 05:43:16;;;;;;;26.25;16.80;;;2.50;99.90;;;;;;5051495;28;20045;-72
2021/12/10 05:45:43;;;;;;;29.25;16.95;;;2.60;99.90;;;;;;5067444;28;20040;-71
2021/12/10 05:48:09;;;;;;;27.77;16.23;;;2.70;99.90;;;;;;5071538;28;20044;-72
2021/12/10 05:50:39;;;;;;;24.33;16.00;;;;;;;;;;5071999;28;20824;-73
2021/12/10 05:53:06;;;;;;;26.17;16.23;;;2.70;99.90;;;;;;5072014;28;20044;-73
2021/12/10 05:55:32;;;;;;;31.38;16.77;;;2.60;99.90;;;;;;5055951;28;20093;-73
2021/12/10 05:57:58;;;;;;;27.58;17.48;;;2.20;99.90;;;;;;5072962;28;20048;-72
2021/12/10 06:00:28;;;;;;;24.58;16.80;;;2.80;99.90;;;;;;5072534;28;20047;-73
2021/12/10 06:02:54;;;;;;;29.33;17.67;;;2.20;99.90;;;;;;5072460;28;20071;-73
2021/12/10 06:05:22;;;;;;;26.95;16.00;;;1.50;99.90;;;;;;5056002;28;20559;-73
2021/12/10 06:07:48;;;;;;;28.83;16.98;;;2.60;99.90;;;;;;5072606;28;20211;-73
2021/12/10 06:10:18;;;;;;;27.00;16.33;;;2.70;99.90;;;;;;5055734;28;20044;-73
2021/12/10 06:12:45;;;;;;;26.15;15.68;;;2.10;99.90;;;;;;5055993;28;20104;-74
2021/12/10 06:15:12;;;;;;;24.17;16.00;;;3.20;99.90;;;;;;5055841;28;20072;-73
2021/12/10 06:17:38;;;;;;;23.23;16.08;;;2.50;99.90;;;;;;5071848;28;20056;-73
2021/12/10 06:20:07;;;;;;;25.00;16.50;;;2.40;99.90;;;;;;5073374;28;20098;-73
2021/12/10 06:22:33;;;;;;;31.23;15.35;;;2.90;99.90;;;;;;5072193;28;20655;-73
2021/12/10 06:24:59;;;;;;;24.55;16.30;;;;;;;;;;5071922;28;20123;-73
2021/12/10 06:27:29;;;;;;;23.25;15.95;;;2.50;99.90;;;;;;5073659;28;20473;-72
2021/12/10 06:30:00;;;;;;;24.23;15.57;;;;;;;;;;5072084;28;20079;-73
2021/12/10 06:32:26;;;;;;;26.20;15.73;;;2.70;99.90;;;;;;5055472;28;20036;-73
2021/12/10 06:34:52;;;;;;;27.13;15.48;;;3.20;99.90;;;;;;5072438;28;20047;-73
2021/12/10 06:37:20;;;;;;;24.10;15.75;;;2.50;99.90;;;;;;5072125;28;20045;-72
2021/12/10 06:39:46;;;;;;;25.17;15.38;;;2.60;99.90;;;;;;5072101;28;20102;-72
2021/12/10 06:42:12;;;;;;;22.77;14.88;;;2.50;99.90;;;;;;5055289;28;20052;-72
2021/12/10 06:44:38;;;;;;;26.15;14.98;;;2.40;99.90;;;;;;5071733;28;20047;-73
2021/12/10 06:47:06;;;;;;;21.63;14.85;;;2.20;99.90;;;;;;5071348;28;20057;-72
2021/12/10 06:49:33;;;;;;;23.85;15.20;;;2.30;99.90;;;;;;5054093;28;20037;-72
2021/12/10 06:52:01;;;;;;;27.75;15.13;;;2.70;99.90;;;;;;5053962;28;20048;-72
2021/12/10 06:54:28;;;;;;;26.55;14.75;;;2.10;99.90;;;;;;5071023;28;20036;-72
2021/12/10 06:56:56;;;;;;;25.27;14.63;;;2.10;99.90;;;;;;5071037;28;20123;-72
2021/12/10 06:59:24;;;;;;;19.08;13.27;;;;;;;;;;5053890;28;20052;-72
2021/12/10 07:01:50;;;;;;;23.88;14.73;;;2.10;99.90;;;;;;5070437;28;20054;-72
2021/12/10 07:04:16;;;;;;;24.48;13.43;;;1.90;99.90;;;;;;5053737;28;20071;-72
2021/12/10 07:06:45;;;;;;;24.38;13.15;;;2.20;99.90;;;;;;5070588;28;20088;-72
2021/12/10 07:09:15;;;;;;;21.17;12.82;;;2.00;99.90;;;;;;5070769;28;20374;-71
2021/12/10 07:11:41;;;;;;;22.38;12.63;;;2.20;99.90;;;;;;5070449;28;20850;-72
2021/12/10 07:14:07;;;;;;;23.42;13.05;;;2.80;99.90;;;;;;5070374;28;20123;-71
2021/12/10 07:16:34;;;;;;;20.40;12.32;;;2.10;99.90;;;;;;5069905;28;20127;-72
2021/12/10 07:19:03;;;;;;;21.48;12.60;;;2.10;99.90;;;;;;5070541;28;20445;-73
2021/12/10 07:21:32;;;;;;;23.85;13.30;;;;;;;;;;5069930;28;20064;-72
2021/12/10 07:24:04;;;;;;;23.98;13.35;;;2.10;99.90;;;;;;5069991;28;20043;-72
2021/12/10 07:26:30;;;;;;;21.15;13.13;;;;;;;;;;5070129;28;20045;-72
2021/12/10 07:28:58;;;;;;;26.77;12.15;;;1.90;99.90;;;;;;5069849;28;20044;-72
2021/12/10 07:31:24;;;;;;;23.10;12.50;;;;;;;;;;5070010;28;20040;-72
2021/12/10 07:33:50;;;;;;;25.08;13.43;;;1.70;99.90;;;;;;5070200;28;20127;-72
2021/12/10 07:36:16;;;;;;;27.90;12.63;;;2.10;99.90;;;;;;5070067;28;20560;-72
2021/12/10 07:38:43;;;;;;;19.20;12.80;;;2.10;99.90;;;;;;5070296;28;20392;-73
2021/12/10 07:41:11;;;;;;;20.48;13.30;;;1.80;99.90;;;;;;5070346;28;20048;-70
2021/12/10 07:43:37;;;;;;;19.42;12.13;;;2.00;99.90;;;;;;5053321;28;20106;-70
2021/12/10 07:46:04;;;;;;;20.47;12.90;;;1.90;99.90;;;;;;5032185;28;1064207;-70
2021/12/10 07:48:34;;;;;;;19.00;13.20;;;1.70;99.90;;;;;;5070733;28;20123;-70
2021/12/10 07:51:08;;;;;;;19.60;12.43;;;2.00;99.90;;;;;;5070655;28;20147;-70
2021/12/10 07:53:35;;;;;;;20.98;12.57;;;;;;;;;;5070975;28;20044;-70
2021/12/10 07:56:05;;;;;;;17.05;12.40;;;1.40;99.90;;;;;;5071184;28;20480;-70
2021/12/10 07:58:32;;;;;;;24.05;13.23;;;2.70;99.90;;;;;;5070377;28;20549;-70
2021/12/10 08:01:00;;;;;;;21.77;12.40;;;1.70;99.90;;;;;;5069547;28;20131;-70
2021/12/10 08:03:28;;;;;;;20.33;12.65;;;;;;;;;;5069436;28;20044;-70
2021/12/10 08:05:54;;;;;;;23.48;13.35;;;;;;;;;;5069753;28;20080;-70
2021/12/10 08:08:19;;;;;;;22.45;12.40;;;1.80;99.90;;;;;;5070152;28;20052;-70
2021/12/10 08:10:48;;;;;;;19.52;12.88;;;2.20;99.90;;;;;;5069517;28;20147;-70
2021/12/10 08:13:16;;;;;;;21.70;12.35;;;2.40;99.90;;;;;;5070129;28;20060;-70
2021/12/10 08:15:45;;;;;;;25.15;12.07;;;2.20;99.90;;;;;;5071403;28;20047;-71
2021/12/10 08:18:11;;;;;;;20.50;12.75;;;;;;;;;;5053810;28;20045;-70
2021/12/10 08:20:37;;;;;;;20.98;12.43;;;;;;;;;;5069957;28;20052;-71
2021/12/10 08:23:03;;;;;;;21.40;12.88;;;1.70;99.90;;;;;;5070165;28;20516;-71
2021/12/10 08:25:30;;;;;;;20.35;13.20;;;2.10;99.90;;;;;;5069863;28;20044;-70
2021/12/10 08:28:00;;;;;;;19.77;12.20;;;2.20;99.90;;;;;;5071315;28;20046;-70
2021/12/10 08:30:28;;;;;;;23.77;12.68;;;2.20;99.90;;;;;;5069867;28;20127;-70
2021/12/10 08:32:57;;;;;;;19.08;12.43;;;2.40;99.90;;;;;;5071400;28;20076;-71
2021/12/10 08:35:26;;;;;;;27.88;11.80;;;2.30;99.90;;;;;;5071297;28;20098;-70
2021/12/10 08:37:53;;;;;;;18.75;12.00;;;2.30;99.90;;;;;;5069937;28;20052;-70
2021/12/10 08:40:23;;;;;;;21.48;11.70;;;2.10;99.90;;;;;;5070505;28;20064;-70
2021/12/10 08:42:51;;;;;;;20.77;11.63;;;2.60;99.90;;;;;;5053211;28;20052;-70
2021/12/10 08:45:19;;;;;;;20.13;11.00;;;1.60;99.90;;;;;;5070014;28;20056;-69
2021/12/10 08:47:46;;;;;;;21.25;11.68;;;1.00;99.90;;;;;;5070818;28;20066;-71
2021/12/10 08:50:16;;;;;;;25.30;11.90;;;;;;;;;;5069743;28;20484;-66
2021/12/10 08:52:43;;;;;;;24.15;11.20;;;2.50;99.90;;;;;;5070994;28;20048;-70
2021/12/10 08:55:10;;;;;;;20.83;11.68;;;2.60;99.90;;;;;;5069783;28;20036;-68
2021/12/10 08:57:35;;;;;;;15.55;10.27;;;3.10;99.90;;;;;;5069658;28;20040;-73
2021/12/10 09:00:05;;;;;;;18.35;10.63;;;2.60;99.90;;;;;;5070640;28;20043;-71
2021/12/10 09:02:31;;;;;;;15.95;10.30;;;2.40;99.90;;;;;;5069405;28;20105;-71
2021/12/10 09:04:58;;;;;;;17.98;11.00;;;;;;;;;;5070827;28;20053;-71
2021/12/10 09:07:24;;;;;;;17.85;10.38;;;3.00;99.90;;;;;;5069144;28;20574;-73
2021/12/10 09:09:50;;;;;;;18.05;10.43;;;;;;;;;;5069141;28;20128;-71
2021/12/10 09:12:23;;;;;;;17.90;10.88;;;2.40;99.90;;;;;;5036032;28;20037;-72
2021/12/10 09:14:53;;;;;;;18.95;10.20;;;2.90;99.90;;;;;;5069506;28;20114;-72
2021/12/10 09:17:23;;;;;;;18.48;10.25;;;2.80;99.90;;;;;;5069643;28;20852;-72
2021/12/10 09:20:01;;;;;;;17.38;10.02;;;2.80;99.90;;;;;;5069345;28;20563;-72
2021/12/10 09:22:28;;;;;;;16.88;10.05;;;;;;;;;;5070388;28;20047;-72
2021/12/10 09:24:56;;;;;;;20.80;10.07;;;2.80;99.90;;;;;;5069216;28;20526;-72
2021/12/10 09:27:25;;;;;;;14.95;9.75;;;3.40;99.90;;;;;;5069358;28;20048;-72
2021/12/10 09:29:55;;;;;;;18.05;10.48;;;3.00;99.90;;;;;;5069368;28;20049;-72
2021/12/10 09:32:24;;;;;;;18.25;9.65;;;3.20;99.90;;;;;;5068829;28;20037;-72
2021/12/10 09:34:51;;;;;;;16.75;9.15;;;2.70;99.90;;;;;;5068988;28;20041;-71
2021/12/10 09:37:19;;;;;;;15.25;9.80;;;3.00;99.90;;;;;;5070284;28;20044;-72
2021/12/10 09:39:48;;;;;;;13.43;9.23;;;3.40;99.90;;;;;;5068808;28;20040;-72
2021/12/10 09:42:16;;;;;;;17.98;9.40;;;4.80;99.90;;;;;;5068479;28;20496;-72
2021/12/10 09:44:42;;;;;;;15.88;9.48;;;;;;;;;;5068413;28;20052;-72
2021/12/10 09:47:14;;;;;;;15.50;9.65;;;4.50;99.90;;;;;;5068986;28;20404;-68
2021/12/10 09:49:46;;;;;;;13.48;8.68;;;4.40;99.90;;;;;;5068785;28;20057;-69
2021/12/10 09:52:12;;;;;;;17.45;8.95;;;3.60;99.90;;;;;;5068664;28;20758;-69
2021/12/10 09:54:39;;;;;;;12.63;8.43;;;4.30;99.90;;;;;;5068725;28;20097;-69
2021/12/10 09:57:10;;;;;;;18.40;8.80;;;4.20;99.90;;;;;;5068787;28;20503;-69
2021/12/10 09:59:39;;;;;;;13.00;8.65;;;4.30;99.90;;;;;;5069083;28;20534;-69
2021/12/10 10:02:06;;;;;;;14.10;8.10;;;4.30;99.90;;;;;;5068903;28;20048;-68
2021/12/10 10:04:35;;;;;;;16.48;8.90;;;4.10;99.90;;;;;;5068560;28;20055;-69
2021/12/10 10:07:13;;;;;;;16.50;8.98;;;4.00;99.90;;;;;;5068494;28;20048;-69
2021/12/10 10:09:41;;;;;;;15.63;8.43;;;4.40;99.90;;;;;;5069855;28;20045;-69
2021/12/10 10:12:19;;;;;;;16.58;8.90;;;3.80;99.90;;;;;;5068681;28;20051;-69
2021/12/10 10:14:46;;;;;;;13.52;8.45;;;4.20;99.90;;;;;;5068554;28;20040;-69
2021/12/10 10:17:12;;;;;;;13.82;7.93;;;4.20;99.90;;;;;;5068761;28;20052;-69
2021/12/10 10:19:40;;;;;;;13.60;8.10;;;4.20;99.90;;;;;;5068800;28;20044;-69
2021/12/10 10:22:08;;;;;;;12.98;7.60;;;4.10;99.90;;;;;;5070051;28;20464;-69
2021/12/10 10:24:35;;;;;;;12.63;8.02;;;;;;;;;;5068710;28;20059;-69
2021/12/10 10:27:09;;;;;;;11.50;8.07;;;4.20;99.90;;;;;;5068773;28;20452;-69
2021/12/10 10:29:40;;;;;;;12.35;7.95;;;4.40;99.90;;;;;;5068593;28;20060;-69
2021/12/10 10:32:11;;;;;;;11.40;7.70;;;4.30;99.90;;;;;;5068404;28;20039;-69
2021/12/10 10:34:42;;;;;;;12.80;7.82;;;4.30;99.90;;;;;;5072032;28;20048;-69
2021/12/10 10:37:08;;;;;;;15.52;6.65;;;4.30;99.90;;;;;;5071961;28;20137;-69
2021/12/10 10:39:36;;;;;;;11.65;7.10;;;;;;;;;;5072035;28;20129;-69
2021/12/10 10:42:06;;;;;;;11.20;6.93;;;4.10;99.90;;;;;;5072223;28;20533;-71
2021/12/10 10:44:32;;;;;;;10.90;6.50;;;4.60;99.90;;;;;;5072165;28;20681;-71
2021/12/10 10:47:00;;;;;;;12.75;6.65;;;4.60;99.90;;;;;;5071821;28;20469;-71
2021/12/10 10:49:47;;;;;;;11.90;6.90;;;4.60;99.90;;;;;;5071950;28;20045;-71
2021/12/10 10:52:31;;;;;;;9.23;6.57;;;4.40;99.90;;;;;;5072076;28;20396;-71
2021/12/10 10:55:14;;;;;;;12.63;6.50;;;4.60;99.90;;;;;;5071955;28;20041;-71
2021/12/10 10:57:57;;;;;;;10.30;6.47;;;4.90;99.90;;;;;;5071901;28;20551;-71
2021/12/10 11:00:34;;;;;;;11.40;6.40;;;4.70;99.90;;;;;;5071840;28;20544;-71
2021/12/10 11:03:13;;;;;;;10.45;5.55;;;5.00;99.90;;;;;;5071590;28;20051;-71
2021/12/10 11:05:52;;;;;;;10.80;6.15;;;5.10;99.90;;;;;;5071797;28;20040;-71
2021/12/10 11:08:38;;;;;;;9.57;5.72;;;5.00;99.90;;;;;;5055396;28;20040;-71
2021/12/10 11:11:15;;;;;;;9.05;6.00;;;4.80;99.90;;;;;;5072827;28;20045;-72
2021/12/10 11:13:45;;;;;;;12.10;6.45;;;4.80;99.90;;;;;;5055421;28;20041;-72
2021/12/10 11:16:19;;;;;;;10.52;5.47;;;4.60;99.90;;;;;;5071779;28;20087;-72
2021/12/10 11:18:56;;;;;;;11.32;5.70;;;4.50;99.90;;;;;;5072814;28;20040;-72
2021/12/10 11:21:42;;;;;;;10.85;6.18;;;5.40;99.90;;;;;;5072458;28;20127;-72
2021/12/10 11:24:17;;;;;;;9.65;5.35;;;5.60;99.90;;;;;;5071415;28;20510;-71
2021/12/10 11:26:59;;;;;;;14.38;5.82;;;5.10;99.90;;;;;;5054652;28;20044;-72
2021/12/10 11:29:42;;;;;;;12.32;5.28;;;5.10;99.90;;;;;;5071229;28;20048;-72
2021/12/10 11:32:28;;;;;;;13.43;5.30;;;5.30;99.90;;;;;;5072351;28;20090;-72
2021/12/10 11:35:02;;;;;;;11.70;5.65;;;4.90;99.90;;;;;;5070934;28;20496;-72
2021/12/10 11:37:39;;;;;;;11.40;5.00;;;5.20;99.90;;;;;;5071021;28;20127;-71
2021/12/10 11:40:22;;;;;;;14.77;5.45;;;5.00;99.90;;;;;;5071318;28;20455;-71
2021/12/10 11:42:56;;;;;;;12.75;4.97;;;5.20;99.90;;;;;;5071068;28;20548;-70
2021/12/10 11:48:42;;;;;;;9.90;5.05;;;5.50;99.90;;;;;;5012797;28;20564;-71
2021/12/10 11:51:14;;;;;;;10.48;5.03;;;5.30;99.90;;;;;;5029500;28;20096;-71
2021/12/10 11:53:49;;;;;;;11.25;5.20;;;5.20;99.90;;;;;;5013300;28;20041;-71
2021/12/10 11:56:17;;;;;;;9.10;4.57;;;5.40;99.90;;;;;;5029770;28;20049;-71
2021/12/10 11:58:43;;;;;;;9.18;4.90;;;5.30;99.90;;;;;;5013280;28;20446;-71
2021/12/10 12:01:17;;;;;;;11.00;4.93;;;5.50;99.90;;;;;;5013336;28;20115;-71
2021/12/10 12:03:44;;;;;;;10.88;4.78;;;4.70;99.90;;;;;;5013281;28;20072;-72
2021/12/10 12:06:15;;;;;;;13.02;4.88;;;5.70;99.90;;;;;;5013158;28;20572;-72
2021/12/10 12:08:41;;;;;;;10.77;4.78;;;5.60;99.90;;;;;;5029655;28;20046;-72
2021/12/10 12:11:08;;;;;;;9.02;4.57;;;5.80;99.90;;;;;;5012931;28;20830;-72
2021/12/10 12:13:38;;;;;;;7.97;4.40;;;5.70;99.90;;;;;;5012926;28;20049;-72
2021/12/10 12:16:16;;;;;;;10.27;4.75;;;5.60;99.90;;;;;;5012910;28;20088;-72
2021/12/10 12:18:54;;;;;;;11.40;4.22;;;5.90;99.90;;;;;;5012892;28;20053;-71
2021/12/10 12:27:14;;;;;;;11.45;4.70;;;5.40;99.90;;;;;;5070206;28;20094;-71
2021/12/10 12:29:52;;;;;;;10.27;4.78;;;5.80;99.90;;;;;;5071389;28;20044;-71
2021/12/10 12:32:28;;;;;;;9.13;4.45;;;5.50;99.90;;;;;;5071321;28;20075;-71
2021/12/10 12:34:54;;;;;;;12.52;4.63;;;5.90;99.90;;;;;;5071338;28;20040;-71
2021/12/10 12:37:23;;;;;;;11.70;4.70;;;5.90;99.90;;;;;;5070403;28;20086;-71
2021/12/10 12:39:59;;;;;;;11.25;4.50;;;6.00;99.90;;;;;;5071327;28;20515;-71
2021/12/10 12:42:29;;;;;;;10.82;4.30;;;6.00;99.90;;;;;;5069819;28;20055;-71
2021/12/10 12:45:11;;;;;;;8.43;4.50;;;5.90;99.90;;;;;;5069694;28;20048;-71
2021/12/10 12:47:41;;;;;;;9.77;4.47;;;5.70;99.90;;;;;;5069522;28;20492;-71
2021/12/10 12:50:39;;;;;;;11.68;4.60;;;6.10;99.90;;;;;;5069905;28;20416;-71
2021/12/10 12:53:05;;;;;;;13.05;4.60;;;;;;;;;;5068920;28;20045;-71
2021/12/10 12:55:42;;;;;;;9.93;4.38;;;6.00;99.90;;;;;;5065172;28;20048;-71
2021/12/10 12:58:11;;;;;;;12.35;4.07;;;5.50;99.90;;;;;;5052104;28;20115;-71
2021/12/10 13:00:53;;;;;;;11.65;4.60;;;5.90;99.90;;;;;;5057748;28;20072;-71
2021/12/10 13:03:25;;;;;;;14.82;5.10;;;5.50;99.90;;;;;;5069848;28;20133;-71
2021/12/10 13:06:08;;;;;;;13.23;4.93;;;5.90;99.90;;;;;;5069750;28;20441;-71
2021/12/10 13:08:37;;;;;;;10.65;4.82;;;;;;;;;;5069743;28;20400;-71
2021/12/10 13:11:46;;;;;;;9.77;4.50;;;5.80;99.90;;;;;;5070480;28;20579;-71
2021/12/10 13:14:18;;;;;;;9.65;4.78;;;5.60;99.90;;;;;;5070570;28;20124;-71
2021/12/10 13:16:48;;;;;;;11.93;4.72;;;5.80;99.90;;;;;;5070722;28;20048;-71
2021/12/10 13:19:21;;;;;;;12.95;5.00;;;5.90;99.90;;;;;;5069421;28;20052;-71
2021/12/10 13:21:52;;;;;;;12.43;4.70;;;6.20;99.90;;;;;;5070623;28;20041;-71
2021/12/10 13:24:18;;;;;;;9.25;4.45;;;5.50;99.90;;;;;;5068743;28;20044;-71